createdAt,value
2023-09-07T00:02:44.452Z,80.32
2023-09-07T00:07:46.548Z,80.82
2023-09-07T00:12:48.593Z,80.89
2023-09-07T00:17:50.663Z,81.54
2023-09-07T00:22:52.691Z,82.74
2023-09-07T00:27:55.013Z,83.01
2023-09-07T00:32:57.140Z,83.29
2023-09-07T00:37:59.146Z,83.88
2023-09-07T00:43:01.147Z,84.47
2023-09-07T00:48:03.272Z,85.35
2023-09-07T00:53:05.317Z,86.30
2023-09-07T00:58:07.285Z,86.82
2023-09-07T01:03:09.438Z,87.87
2023-09-07T01:08:16.518Z,88.14
2023-09-07T01:13:20.101Z,89.36
2023-09-07T01:18:38.480Z,89.76
2023-09-07T01:23:43.819Z,90.55
2023-09-07T01:28:45.824Z,91.30
2023-09-07T01:33:47.936Z,91.96
2023-09-07T01:38:50.039Z,91.92
2023-09-07T01:43:52.046Z,92.46
2023-09-07T01:48:54.086Z,93.09
2023-09-07T01:53:56.373Z,93.91
2023-09-07T01:58:58.316Z,94.18
2023-09-07T02:04:00.409Z,93.94
2023-09-07T02:09:02.504Z,93.39
2023-09-07T02:14:04.583Z,93.26
2023-09-07T02:19:07.108Z,93.52
2023-09-07T02:24:09.165Z,93.44
2023-09-07T02:29:11.259Z,94.02
2023-09-07T02:34:13.271Z,93.33
2023-09-07T02:39:15.228Z,93.22
2023-09-07T02:44:17.201Z,93.28
2023-09-07T02:49:19.185Z,92.78
2023-09-07T02:54:21.244Z,93.05
2023-09-07T02:59:23.262Z,93.27
2023-09-07T03:04:25.465Z,93.54
2023-09-07T03:09:27.583Z,93.34
2023-09-07T03:14:29.685Z,93.04
2023-09-07T03:19:31.711Z,92.99
2023-09-07T03:24:33.871Z,92.71
2023-09-07T03:29:35.864Z,90.93
2023-09-07T03:34:37.928Z,87.45
2023-09-07T03:39:40.062Z,82.92
2023-09-07T03:44:42.181Z,78.27
2023-09-07T03:49:44.182Z,71.73
2023-09-07T03:54:46.124Z,62.99
2023-09-07T03:59:48.880Z,55.80
2023-09-07T04:04:55.108Z,59.89
2023-09-07T04:09:57.058Z,66.13
2023-09-07T04:14:59.071Z,69.04
2023-09-07T04:20:01.398Z,71.05
2023-09-07T04:25:04.102Z,72.30
2023-09-07T04:30:08.389Z,73.12
2023-09-07T04:35:10.624Z,74.06
2023-09-07T04:40:12.844Z,74.19
2023-09-07T04:45:14.831Z,75.59
2023-09-07T04:50:16.955Z,75.91
2023-09-07T04:55:18.936Z,75.75
2023-09-07T05:00:21.063Z,75.76
2023-09-07T05:05:22.963Z,76.52
2023-09-07T05:10:24.889Z,76.34
2023-09-07T05:15:26.892Z,74.46
2023-09-07T05:20:31.718Z,72.71
2023-09-07T05:25:33.610Z,71.71
2023-09-07T05:30:35.519Z,72.78
2023-09-07T05:35:37.779Z,72.50
2023-09-07T05:40:40.870Z,70.92
2023-09-07T05:45:42.884Z,68.81
2023-09-07T05:50:45.057Z,68.98
2023-09-07T05:55:47.086Z,69.08
2023-09-07T06:00:49.037Z,66.64
2023-09-07T06:05:51.073Z,64.24
2023-09-07T06:10:53.167Z,48.60
2023-09-07T06:15:55.117Z,36.61
2023-09-07T06:20:56.870Z,33.90
2023-09-07T06:25:58.871Z,29.12
2023-09-07T06:31:00.871Z,26.35
2023-09-07T06:36:02.873Z,26.82
2023-09-07T06:41:04.705Z,23.70
2023-09-07T06:46:07.628Z,21.77
2023-09-07T06:51:09.754Z,20.31
2023-09-07T06:56:11.772Z,18.97
2023-09-07T07:01:13.850Z,18.82
2023-09-07T07:06:15.867Z,18.56
2023-09-07T07:11:17.786Z,17.66
2023-09-07T07:16:19.842Z,16.98
2023-09-07T07:21:22.058Z,16.55
2023-09-07T07:26:24.015Z,17.63
2023-09-07T07:31:26.130Z,15.97
2023-09-07T07:36:28.182Z,17.22
2023-09-07T07:41:31.480Z,16.61
2023-09-07T07:46:33.602Z,23.14
2023-09-07T07:51:35.599Z,29.63
2023-09-07T07:56:37.572Z,33.32
2023-09-07T08:01:39.673Z,35.67
2023-09-07T08:06:41.727Z,38.11
2023-09-07T08:11:43.577Z,38.63
2023-09-07T08:16:45.335Z,39.57
2023-09-07T08:21:47.426Z,39.30
2023-09-07T08:26:49.366Z,40.06
2023-09-07T08:31:51.698Z,39.43
2023-09-07T08:36:53.705Z,39.94
2023-09-07T08:42:01.797Z,40.01
2023-09-07T08:47:04.649Z,39.96
2023-09-07T08:52:06.697Z,40.15
2023-09-07T08:57:08.430Z,41.17
2023-09-07T09:02:13.556Z,41.01
2023-09-07T09:07:15.824Z,41.47
2023-09-07T09:12:17.599Z,40.65
2023-09-07T09:17:19.492Z,40.50
2023-09-07T09:22:21.455Z,40.57
2023-09-07T09:27:23.410Z,40.93
2023-09-07T09:32:25.353Z,41.78
2023-09-07T09:37:27.333Z,40.63
2023-09-07T09:42:29.345Z,39.77
2023-09-07T09:47:32.294Z,39.06
2023-09-07T09:52:35.936Z,40.27
2023-09-07T09:57:37.983Z,40.19
2023-09-07T10:02:40.101Z,40.33
2023-09-07T10:07:44.805Z,41.22
2023-09-07T10:12:56.503Z,41.05
2023-09-07T10:18:10.753Z,40.36
2023-09-07T10:23:12.744Z,39.65
2023-09-07T10:28:24.932Z,39.87
2023-09-07T10:33:27.086Z,39.36
2023-09-07T10:38:28.984Z,40.51
2023-09-07T10:43:31.803Z,41.33
2023-09-07T10:48:34.083Z,41.36
2023-09-07T10:53:36.513Z,41.56
2023-09-07T10:58:38.935Z,41.65
2023-09-07T11:03:40.989Z,42.09
2023-09-07T11:08:42.886Z,42.62
2023-09-07T11:13:44.742Z,42.55
2023-09-07T11:18:46.888Z,41.16
2023-09-07T11:23:48.734Z,40.86
2023-09-07T11:28:50.720Z,40.07
2023-09-07T11:33:52.692Z,39.04
2023-09-07T11:38:54.671Z,38.72
2023-09-07T11:43:56.808Z,38.21
2023-09-07T11:48:58.889Z,38.80
2023-09-07T11:54:02.653Z,39.14
2023-09-07T11:59:04.589Z,37.15
2023-09-07T12:04:07.394Z,36.73
2023-09-07T12:09:09.290Z,36.94
2023-09-07T12:14:11.359Z,36.02
2023-09-07T12:19:13.226Z,36.19
2023-09-07T12:24:15.055Z,37.10
2023-09-07T12:29:17.080Z,37.20
2023-09-07T12:34:18.948Z,37.06
2023-09-07T12:39:20.784Z,37.41
2023-09-07T12:44:22.923Z,37.67
2023-09-07T12:49:24.665Z,37.79
2023-09-07T12:54:26.574Z,38.50
2023-09-07T12:59:29.712Z,38.35
2023-09-07T13:04:31.799Z,37.54
2023-09-07T13:09:33.748Z,37.00
2023-09-07T13:14:35.708Z,37.25
2023-09-07T13:19:37.678Z,38.22
2023-09-07T13:24:39.610Z,39.29
2023-09-07T13:29:41.585Z,39.18
2023-09-07T13:34:43.410Z,39.34
2023-09-07T13:39:45.396Z,39.25
2023-09-07T13:44:47.295Z,38.93
2023-09-07T13:49:49.344Z,39.85
2023-09-07T13:54:52.877Z,41.05
2023-09-07T13:59:54.899Z,41.68
2023-09-07T14:04:57.615Z,41.89
2023-09-07T14:10:04.364Z,41.79
2023-09-07T14:15:07.304Z,41.22
2023-09-07T14:20:11.403Z,41.25
2023-09-07T14:25:13.445Z,41.04
2023-09-07T14:30:15.566Z,40.84
2023-09-07T14:35:17.497Z,41.22
2023-09-07T14:40:19.612Z,41.15
2023-09-07T14:45:21.674Z,41.55
2023-09-07T14:50:23.943Z,41.96
2023-09-07T14:55:25.889Z,42.09
2023-09-07T15:00:27.895Z,42.80
2023-09-07T15:05:29.984Z,42.60
2023-09-07T15:10:31.813Z,41.94
2023-09-07T15:15:34.276Z,41.79
2023-09-07T15:20:36.870Z,41.47
2023-09-07T15:25:38.957Z,41.57
2023-09-07T15:30:41.184Z,41.63
2023-09-07T15:35:43.668Z,41.71
2023-09-07T15:40:45.642Z,42.19
2023-09-07T15:45:47.627Z,42.77
2023-09-07T15:50:49.506Z,43.34
2023-09-07T15:55:51.547Z,43.99
2023-09-07T16:00:53.618Z,44.57
2023-09-07T16:05:55.504Z,45.28
2023-09-07T16:10:59.110Z,45.85
2023-09-07T16:16:01.115Z,46.10
2023-09-07T16:21:03.182Z,46.55
2023-09-07T16:26:05.342Z,46.85
2023-09-07T16:31:09.553Z,47.23
2023-09-07T16:36:11.887Z,47.42
2023-09-07T16:41:14.160Z,48.55
2023-09-07T16:46:16.376Z,49.20
2023-09-07T16:51:18.174Z,50.19
2023-09-07T16:56:20.604Z,50.87
2023-09-07T17:01:22.724Z,51.38
2023-09-07T17:06:24.784Z,51.92
2023-09-07T17:11:27.076Z,52.36
2023-09-07T17:16:31.698Z,53.11
2023-09-07T17:21:34.370Z,53.27
2023-09-07T17:26:39.848Z,53.66
2023-09-07T17:31:42.302Z,53.86
2023-09-07T17:36:44.604Z,54.41
2023-09-07T17:41:46.425Z,55.11
2023-09-07T17:46:50.280Z,54.81
2023-09-07T17:51:52.827Z,55.26
2023-09-07T17:56:59.314Z,55.53
2023-09-07T18:02:01.364Z,55.59
2023-09-07T18:07:03.551Z,56.03
2023-09-07T18:12:06.020Z,56.26
2023-09-07T18:17:08.248Z,56.46
2023-09-07T18:22:11.648Z,56.70
2023-09-07T18:27:13.806Z,56.95
2023-09-07T18:32:15.869Z,56.90
2023-09-07T18:37:18.090Z,57.41
2023-09-07T18:42:20.167Z,57.38
2023-09-07T18:47:22.110Z,57.46
2023-09-07T18:52:24.148Z,57.84
2023-09-07T18:57:26.351Z,58.14
2023-09-07T19:02:28.291Z,58.55
2023-09-07T19:07:30.331Z,57.42
2023-09-07T19:12:32.301Z,57.73
2023-09-07T19:17:34.430Z,57.63
2023-09-07T19:22:36.730Z,57.65
2023-09-07T19:27:38.654Z,57.95
2023-09-07T19:32:40.761Z,57.45
2023-09-07T19:37:42.848Z,57.27
2023-09-07T19:42:44.879Z,57.74
2023-09-07T19:47:46.952Z,58.30
2023-09-07T19:52:49.090Z,58.79
2023-09-07T19:57:51.071Z,59.22
2023-09-07T20:02:53.225Z,59.64
2023-09-07T20:07:55.188Z,60.05
2023-09-07T20:12:57.059Z,59.86
2023-09-07T20:17:59.583Z,60.36
2023-09-07T20:23:02.329Z,60.99
2023-09-07T20:28:04.553Z,62.17
2023-09-07T20:33:06.696Z,63.62
2023-09-07T20:38:08.720Z,65.43
2023-09-07T20:43:10.736Z,66.52
2023-09-07T20:48:12.835Z,67.35
2023-09-07T20:53:15.256Z,68.14
2023-09-07T20:58:17.462Z,68.32
2023-09-07T21:03:19.644Z,68.96
2023-09-07T21:08:21.870Z,69.42
2023-09-07T21:13:24.223Z,70.40
2023-09-07T21:18:26.510Z,71.98
2023-09-07T21:23:28.478Z,72.83
2023-09-07T21:28:30.452Z,71.60
2023-09-07T21:33:32.623Z,73.49
2023-09-07T21:38:35.259Z,74.75
2023-09-07T21:43:37.621Z,75.75
2023-09-07T21:48:39.611Z,76.56
2023-09-07T21:53:41.723Z,76.79
2023-09-07T21:58:43.840Z,77.68
2023-09-07T22:03:45.913Z,77.43
2023-09-07T22:08:48.144Z,76.93
2023-09-07T22:13:50.169Z,77.53
2023-09-07T22:18:52.347Z,77.58
2023-09-07T22:23:54.446Z,76.85
2023-09-07T22:28:56.584Z,76.76
2023-09-07T22:33:58.590Z,76.78
2023-09-07T22:39:00.782Z,77.03
2023-09-07T22:44:02.971Z,77.03
2023-09-07T22:49:05.163Z,77.19
2023-09-07T22:54:07.494Z,76.45
2023-09-07T22:59:09.604Z,76.15
2023-09-07T23:04:11.887Z,75.33
2023-09-07T23:09:14.114Z,75.30
2023-09-07T23:14:16.179Z,74.56
2023-09-07T23:19:21.002Z,73.87
2023-09-07T23:24:23.053Z,73.53
2023-09-07T23:29:25.157Z,73.84
2023-09-07T23:34:27.239Z,73.56
2023-09-07T23:39:29.395Z,73.21
2023-09-07T23:44:31.445Z,72.94
2023-09-07T23:49:34.337Z,73.06
2023-09-07T23:54:36.345Z,73.15
2023-09-07T23:59:38.643Z,72.70
